sensor_id;sensor_type;location;lat;lon;timestamp;P1;durP1;ratioP1;P2;durP2;ratioP2
50104;SDS011;47690;39.202;-77.198;2023-02-11T00:00:04;1.42;;;1.33;;
50104;SDS011;47690;39.202;-77.198;2023-02-11T00:03:20;2.03;;;1.35;;
50104;SDS011;47690;39.202;-77.198;2023-02-11T00:06:34;1.58;;;1.48;;
50104;SDS011;47690;39.202;-77.198;2023-02-11T00:09:49;1.38;;;1.27;;
50104;SDS011;47690;39.202;-77.198;2023-02-11T00:12:56;1.52;;;1.42;;
50104;SDS011;47690;39.202;-77.198;2023-02-11T00:16:18;1.35;;;1.25;;
50104;SDS011;47690;39.202;-77.198;2023-02-11T00:19:36;1.50;;;1.40;;
50104;SDS011;47690;39.202;-77.198;2023-02-11T00:22:45;1.30;;;1.20;;
50104;SDS011;47690;39.202;-77.198;2023-02-11T00:29:33;1.05;;;1.05;;
50104;SDS011;47690;39.202;-77.198;2023-02-11T00:32:45;1.40;;;1.30;;
50104;SDS011;47690;39.202;-77.198;2023-02-11T00:36:36;1.25;;;1.25;;
50104;SDS011;47690;39.202;-77.198;2023-02-11T00:39:44;2.33;;;1.50;;
50104;SDS011;47690;39.202;-77.198;2023-02-11T00:42:52;1.63;;;1.52;;
50104;SDS011;47690;39.202;-77.198;2023-02-11T00:46:24;1.58;;;1.48;;
50104;SDS011;47690;39.202;-77.198;2023-02-11T00:49:24;1.60;;;1.50;;
50104;SDS011;47690;39.202;-77.198;2023-02-11T00:52:44;1.50;;;1.40;;
50104;SDS011;47690;39.202;-77.198;2023-02-11T00:55:48;1.38;;;1.30;;
50104;SDS011;47690;39.202;-77.198;2023-02-11T00:58:51;1.55;;;1.45;;
50104;SDS011;47690;39.202;-77.198;2023-02-11T01:05:13;1.50;;;1.40;;
50104;SDS011;47690;39.202;-77.198;2023-02-11T01:08:46;1.50;;;1.40;;
50104;SDS011;47690;39.202;-77.198;2023-02-11T01:12:13;1.27;;;1.25;;
50104;SDS011;47690;39.202;-77.198;2023-02-11T01:15:43;1.60;;;1.50;;
50104;SDS011;47690;39.202;-77.198;2023-02-11T01:18:44;1.60;;;1.50;;
50104;SDS011;47690;39.202;-77.198;2023-02-11T01:21:52;1.15;;;1.15;;
50104;SDS011;47690;39.202;-77.198;2023-02-11T01:28:36;3.55;;;1.80;;
50104;SDS011;47690;39.202;-77.198;2023-02-11T01:31:44;2.25;;;1.83;;
50104;SDS011;47690;39.202;-77.198;2023-02-11T01:34:49;2.17;;;1.98;;
50104;SDS011;47690;39.202;-77.198;2023-02-11T01:38:17;3.30;;;2.50;;
50104;SDS011;47690;39.202;-77.198;2023-02-11T01:41:36;3.42;;;2.85;;
50104;SDS011;47690;39.202;-77.198;2023-02-11T01:44:48;2.17;;;1.90;;
50104;SDS011;47690;39.202;-77.198;2023-02-11T01:48:06;1.80;;;1.70;;
50104;SDS011;47690;39.202;-77.198;2023-02-11T01:55:11;1.50;;;1.40;;
50104;SDS011;47690;39.202;-77.198;2023-02-11T01:58:40;1.55;;;1.45;;
50104;SDS011;47690;39.202;-77.198;2023-02-11T02:09:43;1.75;;;1.65;;
50104;SDS011;47690;39.202;-77.198;2023-02-11T02:12:52;1.30;;;1.30;;
50104;SDS011;47690;39.202;-77.198;2023-02-11T02:16:05;1.40;;;1.38;;
50104;SDS011;47690;39.202;-77.198;2023-02-11T02:19:41;1.60;;;1.50;;
50104;SDS011;47690;39.202;-77.198;2023-02-11T02:24:12;1.25;;;1.25;;
50104;SDS011;47690;39.202;-77.198;2023-02-11T02:33:54;1.42;;;1.33;;
50104;SDS011;47690;39.202;-77.198;2023-02-11T02:37:35;1.50;;;1.40;;
50104;SDS011;47690;39.202;-77.198;2023-02-11T02:40:49;1.50;;;1.40;;
50104;SDS011;47690;39.202;-77.198;2023-02-11T02:44:03;1.55;;;1.45;;
50104;SDS011;47690;39.202;-77.198;2023-02-11T02:47:35;1.63;;;1.52;;
50104;SDS011;47690;39.202;-77.198;2023-02-11T02:50:35;1.60;;;1.50;;
50104;SDS011;47690;39.202;-77.198;2023-02-11T02:57:49;1.17;;;1.17;;
50104;SDS011;47690;39.202;-77.198;2023-02-11T03:01:32;1.60;;;1.50;;
50104;SDS011;47690;39.202;-77.198;2023-02-11T03:08:46;1.50;;;1.40;;
50104;SDS011;47690;39.202;-77.198;2023-02-11T03:12:09;1.60;;;1.50;;
50104;SDS011;47690;39.202;-77.198;2023-02-11T03:15:50;1.45;;;1.35;;
50104;SDS011;47690;39.202;-77.198;2023-02-11T03:19:14;1.63;;;1.52;;
50104;SDS011;47690;39.202;-77.198;2023-02-11T03:22:34;1.38;;;1.30;;
50104;SDS011;47690;39.202;-77.198;2023-02-11T03:25:50;1.60;;;1.50;;
50104;SDS011;47690;39.202;-77.198;2023-02-11T03:32:45;1.55;;;1.45;;
50104;SDS011;47690;39.202;-77.198;2023-02-11T03:36:35;2.05;;;1.77;;
50104;SDS011;47690;39.202;-77.198;2023-02-11T03:40:00;1.60;;;1.50;;
50104;SDS011;47690;39.202;-77.198;2023-02-11T03:43:14;1.60;;;1.50;;
50104;SDS011;47690;39.202;-77.198;2023-02-11T03:50:45;1.35;;;1.25;;
50104;SDS011;47690;39.202;-77.198;2023-02-11T03:57:59;1.60;;;1.50;;
50104;SDS011;47690;39.202;-77.198;2023-02-11T04:01:05;1.60;;;1.50;;
50104;SDS011;47690;39.202;-77.198;2023-02-11T04:07:53;1.95;;;1.80;;
50104;SDS011;47690;39.202;-77.198;2023-02-11T04:11:01;1.42;;;1.42;;
50104;SDS011;47690;39.202;-77.198;2023-02-11T04:17:21;1.30;;;1.30;;
50104;SDS011;47690;39.202;-77.198;2023-02-11T04:20:33;1.42;;;1.33;;
50104;SDS011;47690;39.202;-77.198;2023-02-11T04:23:41;1.42;;;1.33;;
50104;SDS011;47690;39.202;-77.198;2023-02-11T04:26:52;1.63;;;1.50;;
50104;SDS011;47690;39.202;-77.198;2023-02-11T04:30:25;1.40;;;1.30;;
50104;SDS011;47690;39.202;-77.198;2023-02-11T04:33:30;1.58;;;1.48;;
50104;SDS011;47690;39.202;-77.198;2023-02-11T04:36:51;1.60;;;1.50;;
50104;SDS011;47690;39.202;-77.198;2023-02-11T04:43:37;1.42;;;1.40;;
50104;SDS011;47690;39.202;-77.198;2023-02-11T04:50:43;1.50;;;1.40;;
50104;SDS011;47690;39.202;-77.198;2023-02-11T04:53:52;1.38;;;1.38;;
50104;SDS011;47690;39.202;-77.198;2023-02-11T04:57:48;1.70;;;1.60;;
50104;SDS011;47690;39.202;-77.198;2023-02-11T05:04:45;1.23;;;1.23;;
50104;SDS011;47690;39.202;-77.198;2023-02-11T05:08:16;1.50;;;1.40;;
50104;SDS011;47690;39.202;-77.198;2023-02-11T05:11:25;1.38;;;1.38;;
50104;SDS011;47690;39.202;-77.198;2023-02-11T05:14:33;1.58;;;1.48;;
50104;SDS011;47690;39.202;-77.198;2023-02-11T05:21:49;1.42;;;1.33;;
50104;SDS011;47690;39.202;-77.198;2023-02-11T05:25:05;1.60;;;1.50;;
50104;SDS011;47690;39.202;-77.198;2023-02-11T05:28:13;1.75;;;1.65;;
50104;SDS011;47690;39.202;-77.198;2023-02-11T05:31:43;1.15;;;1.15;;
50104;SDS011;47690;39.202;-77.198;2023-02-11T05:35:01;1.20;;;1.20;;
50104;SDS011;47690;39.202;-77.198;2023-02-11T05:38:06;1.50;;;1.40;;
50104;SDS011;47690;39.202;-77.198;2023-02-11T05:41:14;1.38;;;1.27;;
50104;SDS011;47690;39.202;-77.198;2023-02-11T05:44:44;1.75;;;1.50;;
50104;SDS011;47690;39.202;-77.198;2023-02-11T05:48:16;1.40;;;1.30;;
50104;SDS011;47690;39.202;-77.198;2023-02-11T05:51:36;1.70;;;1.45;;
50104;SDS011;47690;39.202;-77.198;2023-02-11T05:54:42;1.52;;;1.42;;
50104;SDS011;47690;39.202;-77.198;2023-02-11T05:57:49;1.38;;;1.30;;
50104;SDS011;47690;39.202;-77.198;2023-02-11T06:01:20;1.63;;;1.48;;
50104;SDS011;47690;39.202;-77.198;2023-02-11T06:04:24;1.55;;;1.45;;
50104;SDS011;47690;39.202;-77.198;2023-02-11T06:07:20;2.42;;;1.30;;
50104;SDS011;47690;39.202;-77.198;2023-02-11T06:10:49;1.35;;;1.25;;
50104;SDS011;47690;39.202;-77.198;2023-02-11T06:13:56;1.90;;;1.70;;
50104;SDS011;47690;39.202;-77.198;2023-02-11T06:20:41;1.55;;;1.45;;
50104;SDS011;47690;39.202;-77.198;2023-02-11T06:23:48;1.55;;;1.40;;
50104;SDS011;47690;39.202;-77.198;2023-02-11T06:26:53;1.50;;;1.40;;
50104;SDS011;47690;39.202;-77.198;2023-02-11T06:34:21;1.60;;;1.50;;
50104;SDS011;47690;39.202;-77.198;2023-02-11T06:37:54;1.63;;;1.52;;
50104;SDS011;47690;39.202;-77.198;2023-02-11T06:41:21;1.50;;;1.40;;
50104;SDS011;47690;39.202;-77.198;2023-02-11T06:44:40;1.65;;;1.55;;
50104;SDS011;47690;39.202;-77.198;2023-02-11T06:48:04;1.70;;;1.60;;
50104;SDS011;47690;39.202;-77.198;2023-02-11T06:51:18;2.00;;;1.80;;
50104;SDS011;47690;39.202;-77.198;2023-02-11T06:54:49;3.03;;;1.88;;
50104;SDS011;47690;39.202;-77.198;2023-02-11T06:57:53;2.20;;;2.00;;
50104;SDS011;47690;39.202;-77.198;2023-02-11T07:01:17;2.08;;;1.90;;
50104;SDS011;47690;39.202;-77.198;2023-02-11T07:08:20;4.07;;;2.17;;
50104;SDS011;47690;39.202;-77.198;2023-02-11T07:11:48;2.38;;;2.00;;
50104;SDS011;47690;39.202;-77.198;2023-02-11T07:15:06;2.65;;;2.00;;
50104;SDS011;47690;39.202;-77.198;2023-02-11T07:18:25;2.13;;;2.03;;
50104;SDS011;47690;39.202;-77.198;2023-02-11T07:21:44;2.38;;;2.08;;
50104;SDS011;47690;39.202;-77.198;2023-02-11T07:24:52;2.70;;;2.40;;
50104;SDS011;47690;39.202;-77.198;2023-02-11T07:28:25;2.20;;;2.00;;
50104;SDS011;47690;39.202;-77.198;2023-02-11T07:31:29;2.33;;;2.10;;
50104;SDS011;47690;39.202;-77.198;2023-02-11T07:35:33;2.20;;;2.00;;
50104;SDS011;47690;39.202;-77.198;2023-02-11T07:38:37;2.60;;;2.38;;
50104;SDS011;47690;39.202;-77.198;2023-02-11T07:45:25;2.58;;;2.20;;
50104;SDS011;47690;39.202;-77.198;2023-02-11T07:48:33;2.80;;;2.30;;
50104;SDS011;47690;39.202;-77.198;2023-02-11T07:52:05;3.47;;;2.60;;
50104;SDS011;47690;39.202;-77.198;2023-02-11T07:55:15;3.35;;;2.60;;
50104;SDS011;47690;39.202;-77.198;2023-02-11T07:58:34;3.78;;;2.60;;
50104;SDS011;47690;39.202;-77.198;2023-02-11T08:01:44;3.92;;;2.80;;
50104;SDS011;47690;39.202;-77.198;2023-02-11T08:08:38;3.42;;;2.90;;
50104;SDS011;47690;39.202;-77.198;2023-02-11T08:15:04;3.78;;;2.50;;
50104;SDS011;47690;39.202;-77.198;2023-02-11T08:18:13;3.20;;;2.60;;
50104;SDS011;47690;39.202;-77.198;2023-02-11T08:21:22;2.88;;;2.40;;
50104;SDS011;47690;39.202;-77.198;2023-02-11T08:25:00;3.22;;;2.58;;
50104;SDS011;47690;39.202;-77.198;2023-02-11T08:28:01;3.38;;;2.70;;
50104;SDS011;47690;39.202;-77.198;2023-02-11T08:31:06;2.95;;;2.55;;
50104;SDS011;47690;39.202;-77.198;2023-02-11T08:34:20;3.60;;;2.88;;
50104;SDS011;47690;39.202;-77.198;2023-02-11T08:37:35;3.65;;;3.03;;
50104;SDS011;47690;39.202;-77.198;2023-02-11T08:40:49;3.28;;;2.83;;
50104;SDS011;47690;39.202;-77.198;2023-02-11T08:44:05;3.70;;;3.30;;
50104;SDS011;47690;39.202;-77.198;2023-02-11T08:47:17;4.70;;;3.00;;
50104;SDS011;47690;39.202;-77.198;2023-02-11T08:51:14;4.38;;;3.10;;
50104;SDS011;47690;39.202;-77.198;2023-02-11T08:55:04;3.45;;;2.90;;
50104;SDS011;47690;39.202;-77.198;2023-02-11T08:58:25;3.83;;;2.80;;
50104;SDS011;47690;39.202;-77.198;2023-02-11T09:01:51;3.13;;;2.63;;
50104;SDS011;47690;39.202;-77.198;2023-02-11T09:05:04;2.97;;;2.45;;
50104;SDS011;47690;39.202;-77.198;2023-02-11T09:08:13;3.70;;;2.72;;
50104;SDS011;47690;39.202;-77.198;2023-02-11T09:11:41;3.17;;;2.45;;
50104;SDS011;47690;39.202;-77.198;2023-02-11T09:18:41;3.80;;;2.78;;
50104;SDS011;47690;39.202;-77.198;2023-02-11T09:21:53;3.55;;;2.70;;
50104;SDS011;47690;39.202;-77.198;2023-02-11T09:25:16;3.05;;;2.53;;
50104;SDS011;47690;39.202;-77.198;2023-02-11T09:28:16;2.80;;;2.50;;
50104;SDS011;47690;39.202;-77.198;2023-02-11T09:31:13;4.00;;;3.10;;
50104;SDS011;47690;39.202;-77.198;2023-02-11T09:34:21;3.30;;;2.67;;
50104;SDS011;47690;39.202;-77.198;2023-02-11T09:37:37;3.10;;;2.40;;
50104;SDS011;47690;39.202;-77.198;2023-02-11T09:48:42;2.53;;;2.13;;
50104;SDS011;47690;39.202;-77.198;2023-02-11T09:55:42;2.33;;;2.08;;
50104;SDS011;47690;39.202;-77.198;2023-02-11T09:58:44;2.85;;;2.50;;
50104;SDS011;47690;39.202;-77.198;2023-02-11T10:02:14;2.72;;;2.30;;
50104;SDS011;47690;39.202;-77.198;2023-02-11T10:09:53;2.75;;;2.40;;
50104;SDS011;47690;39.202;-77.198;2023-02-11T10:23:25;3.50;;;2.40;;
50104;SDS011;47690;39.202;-77.198;2023-02-11T10:27:34;2.83;;;2.53;;
50104;SDS011;47690;39.202;-77.198;2023-02-11T10:34:24;2.92;;;2.60;;
50104;SDS011;47690;39.202;-77.198;2023-02-11T10:37:32;3.85;;;2.90;;
50104;SDS011;47690;39.202;-77.198;2023-02-11T10:40:48;3.78;;;2.90;;
50104;SDS011;47690;39.202;-77.198;2023-02-11T10:47:20;2.92;;;2.45;;
50104;SDS011;47690;39.202;-77.198;2023-02-11T10:50:25;2.83;;;2.38;;
50104;SDS011;47690;39.202;-77.198;2023-02-11T10:53:41;3.28;;;2.72;;
50104;SDS011;47690;39.202;-77.198;2023-02-11T10:56:49;3.70;;;2.83;;
50104;SDS011;47690;39.202;-77.198;2023-02-11T11:03:52;3.00;;;2.25;;
50104;SDS011;47690;39.202;-77.198;2023-02-11T11:21:05;2.63;;;2.42;;
50104;SDS011;47690;39.202;-77.198;2023-02-11T11:25:18;2.97;;;2.40;;
50104;SDS011;47690;39.202;-77.198;2023-02-11T11:29:21;2.92;;;2.33;;
50104;SDS011;47690;39.202;-77.198;2023-02-11T11:32:25;3.30;;;2.33;;
50104;SDS011;47690;39.202;-77.198;2023-02-11T11:35:43;3.60;;;2.45;;
50104;SDS011;47690;39.202;-77.198;2023-02-11T11:42:45;3.30;;;2.67;;
50104;SDS011;47690;39.202;-77.198;2023-02-11T11:45:58;3.13;;;2.55;;
50104;SDS011;47690;39.202;-77.198;2023-02-11T11:56:52;2.67;;;2.45;;
50104;SDS011;47690;39.202;-77.198;2023-02-11T12:35:26;2.30;;;2.10;;
50104;SDS011;47690;39.202;-77.198;2023-02-11T12:38:51;2.42;;;2.10;;
50104;SDS011;47690;39.202;-77.198;2023-02-11T12:55:19;2.50;;;2.30;;
50104;SDS011;47690;39.202;-77.198;2023-02-11T13:03:20;2.80;;;2.22;;
50104;SDS011;47690;39.202;-77.198;2023-02-11T13:06:43;2.63;;;2.20;;
50104;SDS011;47690;39.202;-77.198;2023-02-11T13:13:51;2.47;;;2.00;;
50104;SDS011;47690;39.202;-77.198;2023-02-11T13:17:46;2.10;;;1.90;;
50104;SDS011;47690;39.202;-77.198;2023-02-11T13:22:19;2.08;;;1.88;;
50104;SDS011;47690;39.202;-77.198;2023-02-11T13:30:46;2.20;;;1.90;;
50104;SDS011;47690;39.202;-77.198;2023-02-11T13:38:24;1.83;;;1.73;;
50104;SDS011;47690;39.202;-77.198;2023-02-11T13:45:49;1.70;;;1.60;;
50104;SDS011;47690;39.202;-77.198;2023-02-11T13:49:14;1.88;;;1.77;;
50104;SDS011;47690;39.202;-77.198;2023-02-11T13:53:06;1.70;;;1.60;;
50104;SDS011;47690;39.202;-77.198;2023-02-11T13:59:47;1.50;;;1.40;;
50104;SDS011;47690;39.202;-77.198;2023-02-11T14:07:33;1.50;;;1.40;;
50104;SDS011;47690;39.202;-77.198;2023-02-11T14:10:47;1.83;;;1.73;;
50104;SDS011;47690;39.202;-77.198;2023-02-11T14:14:26;1.50;;;1.40;;
50104;SDS011;47690;39.202;-77.198;2023-02-11T14:21:54;1.52;;;1.42;;
50104;SDS011;47690;39.202;-77.198;2023-02-11T14:25:21;1.73;;;1.63;;
50104;SDS011;47690;39.202;-77.198;2023-02-11T14:28:38;1.60;;;1.50;;
50104;SDS011;47690;39.202;-77.198;2023-02-11T14:32:01;1.70;;;1.60;;
50104;SDS011;47690;39.202;-77.198;2023-02-11T14:42:21;1.70;;;1.60;;
50104;SDS011;47690;39.202;-77.198;2023-02-11T14:45:38;1.60;;;1.50;;
50104;SDS011;47690;39.202;-77.198;2023-02-11T14:48:51;1.73;;;1.60;;
50104;SDS011;47690;39.202;-77.198;2023-02-11T14:52:06;1.60;;;1.50;;
50104;SDS011;47690;39.202;-77.198;2023-02-11T14:55:34;1.80;;;1.70;;
50104;SDS011;47690;39.202;-77.198;2023-02-11T14:58:46;1.73;;;1.50;;
50104;SDS011;47690;39.202;-77.198;2023-02-11T15:09:40;1.98;;;1.80;;
50104;SDS011;47690;39.202;-77.198;2023-02-11T15:12:49;1.50;;;1.40;;
50104;SDS011;47690;39.202;-77.198;2023-02-11T15:15:53;1.70;;;1.60;;
50104;SDS011;47690;39.202;-77.198;2023-02-11T15:19:18;1.60;;;1.50;;
50104;SDS011;47690;39.202;-77.198;2023-02-11T15:22:41;1.63;;;1.52;;
50104;SDS011;47690;39.202;-77.198;2023-02-11T15:25:56;1.60;;;1.50;;
50104;SDS011;47690;39.202;-77.198;2023-02-11T15:29:38;1.73;;;1.63;;
50104;SDS011;47690;39.202;-77.198;2023-02-11T15:32:54;1.70;;;1.60;;
50104;SDS011;47690;39.202;-77.198;2023-02-11T15:36:32;1.50;;;1.40;;
50104;SDS011;47690;39.202;-77.198;2023-02-11T15:40:20;1.73;;;1.63;;
50104;SDS011;47690;39.202;-77.198;2023-02-11T15:43:19;1.80;;;1.70;;
50104;SDS011;47690;39.202;-77.198;2023-02-11T15:46:45;1.92;;;1.67;;
50104;SDS011;47690;39.202;-77.198;2023-02-11T15:49:46;1.70;;;1.60;;
50104;SDS011;47690;39.202;-77.198;2023-02-11T15:52:48;2.08;;;1.70;;
50104;SDS011;47690;39.202;-77.198;2023-02-11T15:56:01;1.90;;;1.80;;
50104;SDS011;47690;39.202;-77.198;2023-02-11T16:00:32;2.17;;;1.63;;
50104;SDS011;47690;39.202;-77.198;2023-02-11T16:04:54;1.83;;;1.65;;
50104;SDS011;47690;39.202;-77.198;2023-02-11T16:12:22;1.70;;;1.60;;
50104;SDS011;47690;39.202;-77.198;2023-02-11T16:16:21;1.70;;;1.60;;
50104;SDS011;47690;39.202;-77.198;2023-02-11T16:25:15;1.90;;;1.80;;
50104;SDS011;47690;39.202;-77.198;2023-02-11T16:28:25;1.80;;;1.70;;
50104;SDS011;47690;39.202;-77.198;2023-02-11T16:32:46;1.60;;;1.50;;
50104;SDS011;47690;39.202;-77.198;2023-02-11T16:37:25;2.38;;;1.90;;
50104;SDS011;47690;39.202;-77.198;2023-02-11T16:47:46;1.52;;;1.42;;
50104;SDS011;47690;39.202;-77.198;2023-02-11T16:51:47;1.95;;;1.67;;
50104;SDS011;47690;39.202;-77.198;2023-02-11T16:56:20;1.85;;;1.73;;
50104;SDS011;47690;39.202;-77.198;2023-02-11T16:59:30;1.95;;;1.77;;
50104;SDS011;47690;39.202;-77.198;2023-02-11T17:03:14;1.70;;;1.60;;
50104;SDS011;47690;39.202;-77.198;2023-02-11T17:18:20;1.73;;;1.63;;
50104;SDS011;47690;39.202;-77.198;2023-02-11T17:21:52;1.70;;;1.60;;
50104;SDS011;47690;39.202;-77.198;2023-02-11T17:24:56;1.73;;;1.63;;
50104;SDS011;47690;39.202;-77.198;2023-02-11T17:28:02;2.22;;;1.88;;
50104;SDS011;47690;39.202;-77.198;2023-02-11T17:31:38;2.15;;;1.90;;
50104;SDS011;47690;39.202;-77.198;2023-02-11T17:39:09;1.25;;;1.25;;
50104;SDS011;47690;39.202;-77.198;2023-02-11T17:42:43;1.80;;;1.70;;
50104;SDS011;47690;39.202;-77.198;2023-02-11T17:45:45;1.67;;;1.58;;
50104;SDS011;47690;39.202;-77.198;2023-02-11T17:49:05;1.33;;;1.33;;
50104;SDS011;47690;39.202;-77.198;2023-02-11T17:59:20;1.90;;;1.77;;
50104;SDS011;47690;39.202;-77.198;2023-02-11T18:02:37;1.60;;;1.50;;
50104;SDS011;47690;39.202;-77.198;2023-02-11T18:05:45;1.52;;;1.42;;
50104;SDS011;47690;39.202;-77.198;2023-02-11T18:08:56;1.75;;;1.65;;
50104;SDS011;47690;39.202;-77.198;2023-02-11T18:12:10;1.80;;;1.70;;
50104;SDS011;47690;39.202;-77.198;2023-02-11T18:15:33;1.80;;;1.70;;
50104;SDS011;47690;39.202;-77.198;2023-02-11T18:18:40;2.45;;;1.60;;
50104;SDS011;47690;39.202;-77.198;2023-02-11T18:21:46;1.70;;;1.60;;
50104;SDS011;47690;39.202;-77.198;2023-02-11T18:25:17;1.70;;;1.60;;
50104;SDS011;47690;39.202;-77.198;2023-02-11T18:28:38;2.20;;;1.80;;
50104;SDS011;47690;39.202;-77.198;2023-02-11T18:37:04;1.63;;;1.52;;
50104;SDS011;47690;39.202;-77.198;2023-02-11T18:40:17;1.65;;;1.55;;
50104;SDS011;47690;39.202;-77.198;2023-02-11T18:56:14;1.55;;;1.45;;
50104;SDS011;47690;39.202;-77.198;2023-02-11T18:59:41;1.58;;;1.48;;
50104;SDS011;47690;39.202;-77.198;2023-02-11T19:02:42;1.70;;;1.60;;
50104;SDS011;47690;39.202;-77.198;2023-02-11T19:05:54;1.15;;;1.15;;
50104;SDS011;47690;39.202;-77.198;2023-02-11T19:09:00;1.60;;;1.50;;
50104;SDS011;47690;39.202;-77.198;2023-02-11T19:15:45;1.50;;;1.40;;
50104;SDS011;47690;39.202;-77.198;2023-02-11T19:18:49;1.50;;;1.40;;
50104;SDS011;47690;39.202;-77.198;2023-02-11T19:25:26;1.50;;;1.40;;
50104;SDS011;47690;39.202;-77.198;2023-02-11T19:29:53;1.90;;;1.73;;
50104;SDS011;47690;39.202;-77.198;2023-02-11T19:33:51;1.58;;;1.48;;
50104;SDS011;47690;39.202;-77.198;2023-02-11T19:42:07;1.35;;;1.30;;
50104;SDS011;47690;39.202;-77.198;2023-02-11T19:50:08;1.25;;;1.25;;
50104;SDS011;47690;39.202;-77.198;2023-02-11T19:53:22;1.60;;;1.50;;
50104;SDS011;47690;39.202;-77.198;2023-02-11T19:56:56;1.60;;;1.50;;
50104;SDS011;47690;39.202;-77.198;2023-02-11T20:00:04;1.63;;;1.52;;
50104;SDS011;47690;39.202;-77.198;2023-02-11T20:03:08;1.65;;;1.55;;
50104;SDS011;47690;39.202;-77.198;2023-02-11T20:06:33;1.50;;;1.40;;
50104;SDS011;47690;39.202;-77.198;2023-02-11T20:09:33;1.40;;;1.33;;
50104;SDS011;47690;39.202;-77.198;2023-02-11T20:12:35;1.33;;;1.23;;
50104;SDS011;47690;39.202;-77.198;2023-02-11T20:15:44;1.55;;;1.45;;
50104;SDS011;47690;39.202;-77.198;2023-02-11T20:18:48;1.50;;;1.40;;
50104;SDS011;47690;39.202;-77.198;2023-02-11T20:21:56;1.50;;;1.40;;
50104;SDS011;47690;39.202;-77.198;2023-02-11T20:28:44;1.73;;;1.63;;
50104;SDS011;47690;39.202;-77.198;2023-02-11T20:32:15;1.60;;;1.50;;
50104;SDS011;47690;39.202;-77.198;2023-02-11T20:35:44;1.50;;;1.38;;
50104;SDS011;47690;39.202;-77.198;2023-02-11T20:39:00;1.67;;;1.58;;
50104;SDS011;47690;39.202;-77.198;2023-02-11T20:42:12;1.30;;;1.27;;
50104;SDS011;47690;39.202;-77.198;2023-02-11T20:45:34;1.55;;;1.45;;
50104;SDS011;47690;39.202;-77.198;2023-02-11T20:52:15;1.08;;;1.08;;
50104;SDS011;47690;39.202;-77.198;2023-02-11T20:55:21;1.60;;;1.50;;
50104;SDS011;47690;39.202;-77.198;2023-02-11T20:58:33;1.85;;;1.70;;
50104;SDS011;47690;39.202;-77.198;2023-02-11T21:01:49;1.35;;;1.33;;
50104;SDS011;47690;39.202;-77.198;2023-02-11T21:09:18;1.67;;;1.57;;
50104;SDS011;47690;39.202;-77.198;2023-02-11T21:12:30;1.45;;;1.35;;
50104;SDS011;47690;39.202;-77.198;2023-02-11T21:15:37;1.83;;;1.73;;
50104;SDS011;47690;39.202;-77.198;2023-02-11T21:18:48;1.70;;;1.60;;
50104;SDS011;47690;39.202;-77.198;2023-02-11T21:21:53;1.60;;;1.50;;
50104;SDS011;47690;39.202;-77.198;2023-02-11T21:24:56;1.60;;;1.50;;
50104;SDS011;47690;39.202;-77.198;2023-02-11T21:28:05;1.70;;;1.60;;
50104;SDS011;47690;39.202;-77.198;2023-02-11T21:31:16;1.70;;;1.60;;
50104;SDS011;47690;39.202;-77.198;2023-02-11T21:34:24;1.80;;;1.70;;
50104;SDS011;47690;39.202;-77.198;2023-02-11T21:37:32;1.98;;;1.77;;
50104;SDS011;47690;39.202;-77.198;2023-02-11T21:40:40;1.75;;;1.65;;
50104;SDS011;47690;39.202;-77.198;2023-02-11T21:43:45;1.90;;;1.80;;
50104;SDS011;47690;39.202;-77.198;2023-02-11T21:46:48;1.50;;;1.40;;
50104;SDS011;47690;39.202;-77.198;2023-02-11T21:49:53;1.90;;;1.70;;
50104;SDS011;47690;39.202;-77.198;2023-02-11T21:53:25;1.58;;;1.48;;
50104;SDS011;47690;39.202;-77.198;2023-02-11T21:56:48;1.50;;;1.40;;
50104;SDS011;47690;39.202;-77.198;2023-02-11T22:00:06;1.50;;;1.40;;
50104;SDS011;47690;39.202;-77.198;2023-02-11T22:03:18;1.90;;;1.70;;
50104;SDS011;47690;39.202;-77.198;2023-02-11T22:07:00;1.77;;;1.67;;
50104;SDS011;47690;39.202;-77.198;2023-02-11T22:10:18;1.65;;;1.55;;
50104;SDS011;47690;39.202;-77.198;2023-02-11T22:13:40;1.65;;;1.55;;
50104;SDS011;47690;39.202;-77.198;2023-02-11T22:17:09;1.65;;;1.55;;
50104;SDS011;47690;39.202;-77.198;2023-02-11T22:20:55;1.73;;;1.63;;
50104;SDS011;47690;39.202;-77.198;2023-02-11T22:24:13;1.67;;;1.58;;
50104;SDS011;47690;39.202;-77.198;2023-02-11T22:27:20;1.88;;;1.65;;
50104;SDS011;47690;39.202;-77.198;2023-02-11T22:30:25;1.55;;;1.45;;
50104;SDS011;47690;39.202;-77.198;2023-02-11T22:33:33;1.60;;;1.50;;
50104;SDS011;47690;39.202;-77.198;2023-02-11T22:36:39;1.98;;;1.70;;
50104;SDS011;47690;39.202;-77.198;2023-02-11T22:39:44;1.50;;;1.40;;
50104;SDS011;47690;39.202;-77.198;2023-02-11T22:42:49;1.60;;;1.50;;
50104;SDS011;47690;39.202;-77.198;2023-02-11T22:45:52;1.35;;;1.35;;
50104;SDS011;47690;39.202;-77.198;2023-02-11T22:48:58;1.63;;;1.52;;
50104;SDS011;47690;39.202;-77.198;2023-02-11T22:52:08;1.20;;;1.20;;
50104;SDS011;47690;39.202;-77.198;2023-02-11T22:55:12;1.65;;;1.55;;
50104;SDS011;47690;39.202;-77.198;2023-02-11T22:58:20;1.73;;;1.63;;
50104;SDS011;47690;39.202;-77.198;2023-02-11T23:01:33;1.67;;;1.58;;
50104;SDS011;47690;39.202;-77.198;2023-02-11T23:04:38;1.58;;;1.48;;
50104;SDS011;47690;39.202;-77.198;2023-02-11T23:07:45;1.50;;;1.40;;
50104;SDS011;47690;39.202;-77.198;2023-02-11T23:10:48;1.33;;;1.23;;
50104;SDS011;47690;39.202;-77.198;2023-02-11T23:13:52;1.50;;;1.40;;
50104;SDS011;47690;39.202;-77.198;2023-02-11T23:16:56;1.58;;;1.48;;
50104;SDS011;47690;39.202;-77.198;2023-02-11T23:20:04;1.58;;;1.48;;
50104;SDS011;47690;39.202;-77.198;2023-02-11T23:23:14;1.55;;;1.45;;
50104;SDS011;47690;39.202;-77.198;2023-02-11T23:26:24;1.65;;;1.55;;
50104;SDS011;47690;39.202;-77.198;2023-02-11T23:29:33;2.00;;;1.90;;
50104;SDS011;47690;39.202;-77.198;2023-02-11T23:32:37;1.83;;;1.73;;
50104;SDS011;47690;39.202;-77.198;2023-02-11T23:35:42;1.70;;;1.60;;
50104;SDS011;47690;39.202;-77.198;2023-02-11T23:38:48;2.25;;;1.85;;
50104;SDS011;47690;39.202;-77.198;2023-02-11T23:41:44;2.20;;;1.75;;
50104;SDS011;47690;39.202;-77.198;2023-02-11T23:44:54;2.40;;;1.80;;
50104;SDS011;47690;39.202;-77.198;2023-02-11T23:48:00;1.85;;;1.75;;
50104;SDS011;47690;39.202;-77.198;2023-02-11T23:51:04;2.63;;;2.05;;
50104;SDS011;47690;39.202;-77.198;2023-02-11T23:54:12;2.40;;;2.03;;
50104;SDS011;47690;39.202;-77.198;2023-02-11T23:57:22;2.70;;;1.83;;
